Time;durP1;ratioP1;P1;durP2;ratioP2;P2;SDS_P1;SDS_P2;PMS_P1;PMS_P2;Temp;Humidity;BMP_temperature;BMP_pressure;BME280_temperature;BME280_humidity;BME280_pressure;Samples;Min_cycle;Max_cycle;Signal;HPM_P1;HPM_P2
2022/10/27 04:03:59;;;;;;;;;;;21.60;99.90;;;;;;5856811;23;20296;-78
2022/10/27 04:06:27;;;;;;;;;;;21.60;99.90;;;;;;4997941;28;19926;-77
2022/10/27 04:08:53;;;;;;;;;;;21.60;99.90;;;;;;4998176;28;19932;-77
2022/10/27 04:11:20;;;;;;;;;;;21.60;99.90;;;;;;4998033;28;19926;-76
2022/10/27 04:13:46;;;;;;;;;;;21.60;99.90;;;;;;4997858;28;19926;-76
2022/10/27 04:16:13;;;;;;;;;;;21.60;99.90;;;;;;4999271;28;19926;-80
2022/10/27 04:18:39;;;;;;;;;;;21.60;99.90;;;;;;5001818;28;20399;-79
2022/10/27 04:21:06;;;;;;;;;;;21.60;99.90;;;;;;5001802;28;19933;-79
2022/10/27 04:23:34;;;;;;;;;;;21.60;99.90;;;;;;5002570;28;20369;-79
2022/10/27 04:26:01;;;;;;;;;;;21.60;99.90;;;;;;5002543;28;19933;-79
2022/10/27 04:28:27;;;;;;;;;;;21.60;99.90;;;;;;5003056;28;19933;-79
2022/10/27 04:30:54;;;;;;;;;;;21.60;99.90;;;;;;5002431;28;19932;-79
2022/10/27 04:33:20;;;;;;;;;;;21.60;99.90;;;;;;5000441;28;19926;-79
2022/10/27 04:35:47;;;;;;;;;;;21.60;99.90;;;;;;5001090;28;20378;-79
2022/10/27 04:38:13;;;;;;;;;;;21.60;99.90;;;;;;5001811;28;19926;-78
2022/10/27 04:40:41;;;;;;;;;;;21.60;99.90;;;;;;5004666;28;19933;-78
2022/10/27 04:43:08;;;;;;;;;;;21.60;99.90;;;;;;4999631;28;19937;-77
2022/10/27 04:45:35;;;;;;;;;;;21.60;99.90;;;;;;4998173;28;19930;-78
2022/10/27 04:48:01;;;;;;;;;;;21.60;99.90;;;;;;4998140;28;19949;-78
2022/10/27 04:50:28;;;;;;;;;;;21.60;99.90;;;;;;4997861;28;19930;-79
2022/10/27 04:52:55;;;;;;;;;;;21.60;99.90;;;;;;4997187;28;19926;-77
2022/10/27 04:55:22;;;;;;;;;;;21.60;99.90;;;;;;4997165;28;19926;-77
2022/10/27 04:57:50;;;;;;;;;;;21.60;99.90;;;;;;4997115;28;19933;-77
2022/10/27 05:00:16;;;;;;;;;;;21.60;99.90;;;;;;4997022;28;19925;-77
2022/10/27 05:02:43;;;;;;;;;;;21.60;99.90;;;;;;4997059;28;19926;-77
2022/10/27 05:05:10;;;;;;;;;;;21.60;99.90;;;;;;4996888;28;19937;-76
2022/10/27 05:07:36;;;;;;;;;;;21.60;99.90;;;;;;4996664;28;19932;-76
2022/10/27 05:10:03;;;;;;;;;;;21.60;99.90;;;;;;4996912;28;19925;-76
2022/10/27 05:12:30;;;;;;;;;;;21.60;99.90;;;;;;4996908;28;19944;-76
2022/10/27 05:14:58;;;;;;;;;;;21.60;99.90;;;;;;4996759;28;19929;-76
2022/10/27 05:17:24;;;;;;;;;;;21.60;99.90;;;;;;4996503;28;20386;-76
2022/10/27 05:19:51;;;;;;;;;;;21.60;99.90;;;;;;4996322;28;20394;-76
2022/10/27 05:22:17;;;;;;;;;;;21.60;99.90;;;;;;4996375;28;20397;-76
2022/10/27 05:24:44;;;;;;;;;;;21.60;99.90;;;;;;4996321;28;20381;-75
2022/10/27 05:27:10;;;;;;;;;;;21.60;99.90;;;;;;4996308;28;19933;-76
2022/10/27 05:29:37;;;;;;;;;;;21.50;99.90;;;;;;4996222;28;20412;-76
2022/10/27 05:32:05;;;;;;;;;;;21.60;99.90;;;;;;4996218;28;20389;-76
2022/10/27 05:34:31;;;;;;;;;;;21.60;99.90;;;;;;4996615;28;19925;-73
2022/10/27 05:36:58;;;;;;;;;;;21.60;99.90;;;;;;4996401;28;19926;-73
2022/10/27 05:39:25;;;;;;;;;;;21.50;99.90;;;;;;4996324;28;19926;-73
2022/10/27 05:41:51;;;;;;;;;;;21.50;99.90;;;;;;4996300;28;19926;-74
2022/10/27 05:44:18;;;;;;;;;;;21.50;99.90;;;;;;4996207;28;20038;-74
2022/10/27 05:46:44;;;;;;;;;;;21.50;99.90;;;;;;4996219;28;19925;-74
2022/10/27 05:49:12;;;;;;;;;;;21.50;99.90;;;;;;4996157;28;19926;-75
2022/10/27 05:51:39;;;;;;;;;;;21.50;99.90;;;;;;4996109;28;19931;-74
2022/10/27 05:54:06;;;;;;;;;;;21.50;99.90;;;;;;4996040;28;19930;-74
2022/10/27 05:56:32;;;;;;;;;;;21.50;99.90;;;;;;4996079;28;19933;-74
2022/10/27 05:58:59;;;;;;;;;;;21.50;99.90;;;;;;4995992;28;19937;-74
2022/10/27 06:01:25;;;;;;;;;;;21.50;99.90;;;;;;4995891;28;19925;-73
2022/10/27 06:03:52;;;;;;;;;;;21.50;99.90;;;;;;4995865;28;20403;-74
2022/10/27 06:06:20;;;;;;;;;;;21.50;99.90;;;;;;4995734;28;20381;-74
2022/10/27 06:08:46;;;;;;;;;;;21.50;99.90;;;;;;4995810;28;19932;-74
2022/10/27 06:11:13;;;;;;;;;;;21.40;99.90;;;;;;4995732;28;19925;-74
2022/10/27 06:13:39;;;;;;;;;;;21.50;99.90;;;;;;4995673;28;20336;-74
2022/10/27 06:16:06;;;;;;;;;;;21.40;99.90;;;;;;4995696;28;19929;-74
2022/10/27 06:18:33;;;;;;;;;;;21.40;99.90;;;;;;4995638;28;20348;-74
2022/10/27 06:20:59;;;;;;;;;;;21.40;99.90;;;;;;4995468;28;19949;-74
2022/10/27 06:23:27;;;;;;;;;;;21.40;99.90;;;;;;4995462;28;19933;-74
2022/10/27 06:25:54;;;;;;;;;;;21.40;99.90;;;;;;4995123;28;19933;-74
2022/10/27 06:28:21;;;;;;;;;;;21.40;99.90;;;;;;4995450;28;19925;-74
2022/10/27 06:30:48;;;;;;;;;;;21.40;99.90;;;;;;4995410;28;19961;-74
2022/10/27 06:33:14;;;;;;;;;;;21.40;99.90;;;;;;4995288;28;19932;-74
2022/10/27 06:35:41;;;;;;;;;;;21.40;99.90;;;;;;4995285;28;19926;-74
2022/10/27 06:38:08;;;;;;;;;;;21.40;99.90;;;;;;4995280;28;19926;-74
2022/10/27 06:40:36;;;;;;;;;;;21.40;99.90;;;;;;4995156;28;20320;-74
2022/10/27 06:43:02;;;;;;;;;;;21.40;99.90;;;;;;4995104;28;19933;-74
2022/10/27 06:45:29;;;;;;;;;;;21.40;99.90;;;;;;4995123;28;19936;-74
2022/10/27 06:47:57;;;;;;;;;;;21.40;99.90;;;;;;4995113;28;19926;-74
2022/10/27 06:50:23;;;;;;;;;;;21.40;99.90;;;;;;4995071;28;19925;-74
2022/10/27 06:52:51;;;;;;;;;;;21.30;99.90;;;;;;4995035;28;19932;-74
2022/10/27 06:55:17;;;;;;;;;;;21.40;99.90;;;;;;4994933;28;19980;-74
2022/10/27 06:57:45;;;;;;;;;;;21.40;99.90;;;;;;4994974;28;19930;-74
2022/10/27 07:00:12;;;;;;;;;;;21.30;99.90;;;;;;4994847;28;19971;-74
2022/10/27 07:02:39;;;;;;;;;;;21.30;99.90;;;;;;4994801;28;19933;-74
2022/10/27 07:05:06;;;;;;;;;;;21.30;99.90;;;;;;4994848;28;19933;-74
2022/10/27 07:07:32;;;;;;;;;;;21.30;99.90;;;;;;4994577;28;19926;-74
2022/10/27 07:09:59;;;;;;;;;;;21.30;99.90;;;;;;4994799;28;19936;-74
2022/10/27 07:12:26;;;;;;;;;;;21.30;99.90;;;;;;4994840;28;19926;-74
2022/10/27 07:14:54;;;;;;;;;;;21.30;99.90;;;;;;4994714;28;19973;-74
2022/10/27 07:17:20;;;;;;;;;;;21.30;99.90;;;;;;4994728;28;19933;-74
2022/10/27 07:19:47;;;;;;;;;;;21.30;99.90;;;;;;4994625;28;19933;-74
2022/10/27 07:22:13;;;;;;;;;;;21.30;99.90;;;;;;4994689;28;19930;-74
2022/10/27 07:24:40;;;;;;;;;;;21.30;99.90;;;;;;4994608;28;19926;-74
2022/10/27 07:27:06;;;;;;;;;;;21.30;99.90;;;;;;4994624;28;19925;-74
2022/10/27 07:29:33;;;;;;;;;;;21.30;99.90;;;;;;4994663;28;19926;-74
2022/10/27 07:32:01;;;;;;;;;;;21.30;99.90;;;;;;4994608;28;19995;-74
2022/10/27 07:34:28;;;;;;;;;;;21.30;99.90;;;;;;4994505;28;19926;-74
2022/10/27 07:36:54;;;;;;;;;;;21.30;99.90;;;;;;4994615;28;19933;-74
2022/10/27 07:39:21;;;;;;;;;;;21.30;99.90;;;;;;4998492;28;19926;-74
2022/10/27 07:41:47;;;;;;;;;;;21.30;99.90;;;;;;4998461;28;19926;-74
2022/10/27 07:44:14;;;;;;;;;;;21.30;99.90;;;;;;4998423;28;19925;-74
2022/10/27 07:46:40;;;;;;;;;;;21.30;99.90;;;;;;4998114;28;19926;-74
2022/10/27 07:49:08;;;;;;;;;;;21.30;99.90;;;;;;4998433;28;19926;-74
2022/10/27 07:51:35;;;;;;;;;;;21.30;99.90;;;;;;4998395;28;19929;-74
2022/10/27 07:54:01;;;;;;;;;;;21.30;99.90;;;;;;4999130;28;19926;-74
2022/10/27 07:56:29;;;;;;;;;;;21.30;99.90;;;;;;4998286;28;19926;-74
2022/10/27 07:58:56;;;;;;;;;;;21.30;99.90;;;;;;4998221;28;19930;-74
2022/10/27 08:01:22;;;;;;;;;;;21.30;99.90;;;;;;4998100;28;19926;-74
2022/10/27 08:03:49;;;;;;;;;;;21.30;99.90;;;;;;4998082;28;19926;-74
2022/10/27 08:06:17;;;;;;;;;;;21.30;99.90;;;;;;4997902;28;19934;-74
2022/10/27 08:08:43;;;;;;;;;;;21.30;99.90;;;;;;4998041;28;19926;-74
2022/10/27 08:11:10;;;;;;;;;;;21.30;99.90;;;;;;4998031;28;19937;-74
2022/10/27 08:13:37;;;;;;;;;;;21.30;99.90;;;;;;4997893;28;19933;-74
2022/10/27 08:16:03;;;;;;;;;;;21.30;99.90;;;;;;4997937;28;19932;-74
2022/10/27 08:18:30;;;;;;;;;;;21.30;99.90;;;;;;4997910;28;19930;-74
2022/10/27 08:20:56;;;;;;;;;;;21.30;99.90;;;;;;4997742;28;19936;-74
2022/10/27 08:23:24;;;;;;;;;;;21.30;99.90;;;;;;4997986;28;19930;-74
2022/10/27 08:25:51;;;;;;;;;;;21.30;99.90;;;;;;4997681;28;19925;-74
2022/10/27 08:28:18;;;;;;;;;;;21.30;99.90;;;;;;4997728;28;19933;-74
2022/10/27 08:30:44;;;;;;;;;;;21.30;99.90;;;;;;4997631;28;19926;-74
2022/10/27 08:33:12;;;;;;;;;;;21.30;99.90;;;;;;4997234;28;20301;-74
2022/10/27 08:35:39;;;;;;;;;;;21.30;99.90;;;;;;4997538;28;19933;-74
2022/10/27 08:38:06;;;;;;;;;;;21.30;99.90;;;;;;4998619;28;19926;-74
2022/10/27 08:40:37;;;;;;;;;;;21.30;99.90;;;;;;4997129;28;20385;-74
2022/10/27 08:43:13;;;;;;;;;;;21.30;99.90;;;;;;4998277;28;20310;-74
2022/10/27 08:45:46;;;;;;;;;;;21.30;99.90;;;;;;4997419;28;19936;-74
2022/10/27 08:48:13;;;;;;;;;;;21.30;99.90;;;;;;4997562;28;19926;-74
2022/10/27 08:50:42;;;;;;;;;;;21.30;99.90;;;;;;4997262;28;19930;-74
2022/10/27 08:53:12;;;;;;;;;;;21.30;99.90;;;;;;4996897;28;20382;-74
2022/10/27 08:55:46;;;;;;;;;;;21.30;99.90;;;;;;4997118;28;19926;-74
2022/10/27 08:58:15;;;;;;;;;;;21.30;99.90;;;;;;4997170;28;19926;-74
2022/10/27 09:00:46;;;;;;;;;;;21.30;99.90;;;;;;4997026;28;19932;-74
2022/10/27 09:03:33;;;;;;;;;;;21.30;99.90;;;;;;4997326;28;19937;-74
2022/10/27 09:06:03;;;;;;;;;;;21.30;99.90;;;;;;4979831;28;19933;-74
2022/10/27 09:08:32;;;;;;;;;;;21.30;99.90;;;;;;4997010;28;19949;-74
2022/10/27 09:11:04;;;;;;;;;;;21.30;99.90;;;;;;4996608;28;19926;-74
2022/10/27 09:13:37;;;;;;;;;;;21.30;99.90;;;;;;4996828;28;19933;-74
2022/10/27 09:16:05;;;;;;;;;;;21.30;99.90;;;;;;4996555;28;19925;-74
2022/10/27 09:18:34;;;;;;;;;;;21.30;99.90;;;;;;4997628;28;20397;-74
2022/10/27 09:21:02;;;;;;;;;;;21.30;99.90;;;;;;4996651;28;19926;-74
2022/10/27 09:23:32;;;;;;;;;;;21.30;99.90;;;;;;4996596;28;19926;-74
2022/10/27 09:26:00;;;;;;;;;;;21.30;99.90;;;;;;4996389;28;20382;-74
2022/10/27 09:28:30;;;;;;;;;;;21.30;99.90;;;;;;4996602;28;19926;-74
2022/10/27 09:30:57;;;;;;;;;;;21.30;99.90;;;;;;4996499;28;19930;-74
2022/10/27 09:33:28;;;;;;;;;;;21.30;99.90;;;;;;4996477;28;19932;-74
2022/10/27 09:35:55;;;;;;;;;;;21.30;99.90;;;;;;4996465;28;19933;-74
2022/10/27 09:38:23;;;;;;;;;;;21.30;99.90;;;;;;4996144;28;19933;-74
2022/10/27 09:40:50;;;;;;;;;;;21.30;99.90;;;;;;4996310;28;19936;-74
2022/10/27 09:43:20;;;;;;;;;;;21.30;99.90;;;;;;4996235;28;19926;-74
2022/10/27 09:45:49;;;;;;;;;;;21.30;99.90;;;;;;4996300;28;19925;-74
2022/10/27 09:48:19;;;;;;;;;;;21.30;99.90;;;;;;4997112;28;19972;-74
2022/10/27 09:50:49;;;;;;;;;;;21.30;99.90;;;;;;4996171;28;19926;-74
2022/10/27 09:53:34;;;;;;;;;;;21.30;99.90;;;;;;4995804;28;20381;-74
2022/10/27 09:56:01;;;;;;;;;;;21.30;99.90;;;;;;4995769;28;19929;-74
2022/10/27 09:58:29;;;;;;;;;;;21.30;99.90;;;;;;4996012;28;19932;-74
2022/10/27 10:00:57;;;;;;;;;;;21.30;99.90;;;;;;4995092;28;19930;-74
2022/10/27 10:03:23;;;;;;;;;;;21.30;99.90;;;;;;4995943;28;19929;-74
2022/10/27 10:05:57;;;;;;;;;;;21.30;99.90;;;;;;4995688;28;20017;-74
2022/10/27 10:08:25;;;;;;;;;;;21.30;99.90;;;;;;4995569;28;20424;-74
2022/10/27 10:10:56;;;;;;;;;;;21.30;99.90;;;;;;4995781;28;19929;-74
2022/10/27 10:13:22;;;;;;;;;;;21.30;99.90;;;;;;4995644;28;19926;-74
2022/10/27 10:18:22;;;;;;;;;;;21.30;99.90;;;;;;5019785;23;19925;-74
2022/10/27 10:20:55;;;;;;;;;;;21.30;99.90;;;;;;4995458;28;19956;-74
2022/10/27 10:23:22;;;;;;;;;;;21.30;99.90;;;;;;4995300;28;19929;-74
2022/10/27 10:25:49;;;;;;;;;;;21.30;99.90;;;;;;4995316;28;19932;-74
2022/10/27 10:28:18;;;;;;;;;;;21.30;99.90;;;;;;4994978;28;19925;-74
2022/10/27 10:30:48;;;;;;;;;;;21.30;99.90;;;;;;4995250;28;19930;-74
2022/10/27 10:33:16;;;;;;;;;;;21.30;99.90;;;;;;4995441;28;19958;-73
2022/10/27 10:35:45;;;;;;;;;;;21.30;99.90;;;;;;4995373;28;19926;-74
2022/10/27 10:38:33;;;;;;;;;;;21.30;99.90;;;;;;4995246;28;19926;-74
2022/10/27 10:41:04;;;;;;;;;;;21.30;99.90;;;;;;4995214;28;19925;-74
2022/10/27 10:43:31;;;;;;;;;;;21.30;99.90;;;;;;4995229;28;19926;-74
2022/10/27 10:45:58;;;;;;;;;;;21.30;99.90;;;;;;4995166;28;19926;-75
2022/10/27 10:48:29;;;;;;;;;;;21.30;99.90;;;;;;4995227;28;19949;-75
2022/10/27 10:50:58;;;;;;;;;;;21.30;99.90;;;;;;4995472;28;19932;-74
2022/10/27 10:53:26;;;;;;;;;;;21.40;99.90;;;;;;4995458;28;19929;-74
2022/10/27 10:55:54;;;;;;;;;;;21.40;99.90;;;;;;4994874;28;20278;-75
2022/10/27 10:58:22;;;;;;;;;;;21.40;99.90;;;;;;4995276;28;19933;-74
2022/10/27 11:00:53;;;;;;;;;;;21.40;99.90;;;;;;4994956;28;20385;-74
2022/10/27 11:03:20;;;;;;;;;;;21.50;99.90;;;;;;4994658;28;20329;-74
2022/10/27 11:05:52;;;;;;;;;;;21.50;99.90;;;;;;4994949;28;19926;-74
2022/10/27 11:08:22;;;;;;;;;;;21.50;99.90;;;;;;4994909;28;19976;-74
2022/10/27 11:10:49;;;;;;;;;;;21.50;99.90;;;;;;4994830;28;19926;-74
2022/10/27 11:13:17;;;;;;;;;;;21.50;99.90;;;;;;4994364;28;19932;-74
2022/10/27 11:15:45;;;;;;;;;;;21.50;99.90;;;;;;4995488;28;19965;-74
2022/10/27 11:18:13;;;;;;;;;;;21.60;99.90;;;;;;4994257;28;19932;-74
2022/10/27 11:20:41;;;;;;;;;;;21.60;99.90;;;;;;4994407;28;19926;-74
2022/10/27 11:23:14;;;;;;;;;;;21.60;99.90;;;;;;4994609;28;19933;-74
2022/10/27 11:25:42;;;;;;;;;;;21.60;99.90;;;;;;4994761;28;19926;-74
2022/10/27 11:28:15;;;;;;;;;;;21.60;99.90;;;;;;4994594;28;19926;-74
2022/10/27 11:30:43;;;;;;;;;;;21.60;99.90;;;;;;4994713;28;19976;-73
2022/10/27 11:33:14;;;;;;;;;;;21.60;99.90;;;;;;4994570;28;19926;-74
2022/10/27 11:35:44;;;;;;;;;;;21.60;99.90;;;;;;4994613;28;19933;-74
2022/10/27 11:38:15;;;;;;;;;;;21.60;99.90;;;;;;4994480;28;19933;-74
2022/10/27 11:40:46;;;;;;;;;;;21.60;99.90;;;;;;4994549;28;19926;-74
2022/10/27 11:43:17;;;;;;;;;;;21.60;99.90;;;;;;4997396;28;19932;-74
2022/10/27 11:45:47;;;;;;;;;;;21.60;99.90;;;;;;4998873;28;19925;-75
2022/10/27 11:48:17;;;;;;;;;;;21.60;99.90;;;;;;4999069;28;19925;-75
2022/10/27 11:50:46;;;;;;;;;;;21.60;99.90;;;;;;4998010;28;19926;-75
2022/10/27 11:53:13;;;;;;;;;;;21.60;99.90;;;;;;4999515;28;19976;-77
2022/10/27 11:55:45;;;;;;;;;;;21.60;99.90;;;;;;4999420;28;19933;-78
2022/10/27 11:58:20;;;;;;;;;;;21.60;99.90;;;;;;4999394;28;20324;-78
2022/10/27 12:00:52;;;;;;;;;;;21.60;99.90;;;;;;4999384;28;19961;-78
2022/10/27 12:03:33;;;;;;;;;;;21.60;99.90;;;;;;4999646;28;19932;-78
2022/10/27 12:06:03;;;;;;;;;;;21.60;99.90;;;;;;4997193;28;19926;-78
2022/10/27 12:08:36;;;;;;;;;;;21.60;99.90;;;;;;4998769;28;19934;-78
2022/10/27 12:11:12;;;;;;;;;;;21.60;99.90;;;;;;4999677;28;19926;-78
2022/10/27 12:13:42;;;;;;;;;;;21.60;99.90;;;;;;5000350;28;20373;-78
2022/10/27 12:16:13;;;;;;;;;;;21.60;99.90;;;;;;4999300;28;19976;-78
2022/10/27 12:18:42;;;;;;;;;;;21.60;99.90;;;;;;4998826;28;19926;-78
2022/10/27 12:21:13;;;;;;;;;;;21.60;99.90;;;;;;4998770;28;19949;-78
2022/10/27 12:23:43;;;;;;;;;;;21.60;99.90;;;;;;5000963;28;19976;-77
2022/10/27 12:26:12;;;;;;;;;;;21.60;99.90;;;;;;5003669;28;19926;-78
2022/10/27 12:28:40;;;;;;;;;;;21.60;99.90;;;;;;5002145;28;20440;-78
2022/10/27 12:31:09;;;;;;;;;;;21.60;99.90;;;;;;4997712;28;19949;-78
2022/10/27 12:33:38;;;;;;;;;;;21.60;99.90;;;;;;4997636;28;19930;-78
2022/10/27 12:36:10;;;;;;;;;;;21.60;99.90;;;;;;5000474;28;20305;-78
2022/10/27 12:38:40;;;;;;;;;;;21.60;99.90;;;;;;5001119;28;19933;-78
2022/10/27 12:41:10;;;;;;;;;;;21.60;99.90;;;;;;5003017;28;19926;-77
2022/10/27 12:43:41;;;;;;;;;;;21.60;99.90;;;;;;5003257;28;19949;-78
2022/10/27 12:46:23;;;;;;;;;;;21.60;99.90;;;;;;5002938;28;20023;-78
2022/10/27 12:48:54;;;;;;;;;;;21.60;99.90;;;;;;5002791;28;20432;-78
2022/10/27 12:51:27;;;;;;;;;;;21.60;99.90;;;;;;5002635;28;19933;-78
2022/10/27 12:53:56;;;;;;;;;;;21.60;99.90;;;;;;5002675;28;19926;-77
2022/10/27 12:56:28;;;;;;;;;;;21.60;99.90;;;;;;5002239;28;19932;-77
2022/10/27 12:59:00;;;;;;;;;;;21.60;99.90;;;;;;5001575;28;19925;-77
2022/10/27 13:01:33;;;;;;;;;;;21.60;99.90;;;;;;5002812;28;19930;-77
2022/10/27 13:04:09;;;;;;;;;;;21.60;99.90;;;;;;5003311;28;19972;-77
2022/10/27 13:06:45;;;;;;;;;;;21.60;99.90;;;;;;5003071;28;19961;-78
2022/10/27 13:09:23;;;;;;;;;;;21.70;99.90;;;;;;5003246;28;19972;-78
2022/10/27 13:12:03;;;;;;;;;;;21.60;99.90;;;;;;5001537;28;19926;-78
2022/10/27 13:14:51;;;;;;;;;;;21.60;99.90;;;;;;4998724;28;20408;-78
2022/10/27 13:17:23;;;;;;;;;;;21.70;99.90;;;;;;5002089;28;19926;-78
2022/10/27 13:19:53;;;;;;;;;;;21.70;99.90;;;;;;5002666;28;20457;-78
2022/10/27 13:22:24;;;;;;;;;;;21.70;99.90;;;;;;5002585;28;20017;-78
2022/10/27 13:24:54;;;;;;;;;;;21.60;99.90;;;;;;5003758;28;19926;-80
2022/10/27 13:27:23;;;;;;;;;;;21.60;99.90;;;;;;4999596;28;19932;-77
2022/10/27 13:29:52;;;;;;;;;;;21.70;99.90;;;;;;4996616;28;19961;-77
2022/10/27 13:32:31;;;;;;;;;;;21.70;99.90;;;;;;4996940;28;19926;-77
2022/10/27 13:35:28;;;;;;;;;;;21.60;99.90;;;;;;4996094;28;19930;-78
2022/10/27 13:38:09;;;;;;;;;;;21.70;99.90;;;;;;4955391;28;19926;-78
2022/10/27 13:40:37;;;;;;;;;;;21.60;99.90;;;;;;4990769;28;19953;-78
2022/10/27 13:43:18;;;;;;;;;;;21.60;99.90;;;;;;4996296;28;19926;-78
2022/10/27 13:45:49;;;;;;;;;;;21.60;99.90;;;;;;4995855;28;19933;-78
2022/10/27 13:48:32;;;;;;;;;;;21.60;99.90;;;;;;4996214;28;19925;-78
2022/10/27 13:51:19;;;;;;;;;;;21.70;99.90;;;;;;4996236;28;19976;-78
2022/10/27 13:53:45;;;;;;;;;;;21.70;99.90;;;;;;4995753;28;19935;-78
2022/10/27 13:56:27;;;;;;;;;;;21.60;99.90;;;;;;4996042;28;19925;-78
2022/10/27 13:58:56;;;;;;;;;;;21.60;99.90;;;;;;4995611;28;19948;-78
2022/10/27 14:01:24;;;;;;;;;;;21.60;99.90;;;;;;4996077;28;19926;-78
2022/10/27 14:04:01;;;;;;;;;;;21.60;99.90;;;;;;4995902;28;20328;-78
2022/10/27 14:06:30;;;;;;;;;;;21.60;99.90;;;;;;4995916;28;19926;-78
2022/10/27 14:08:57;;;;;;;;;;;21.60;99.90;;;;;;4995910;28;19936;-78
2022/10/27 14:11:25;;;;;;;;;;;21.60;99.90;;;;;;4995541;28;20278;-78
2022/10/27 14:13:53;;;;;;;;;;;21.60;99.90;;;;;;4995812;28;19930;-78
2022/10/27 14:16:23;;;;;;;;;;;21.60;99.90;;;;;;4995515;28;19937;-78
2022/10/27 14:19:00;;;;;;;;;;;21.60;99.90;;;;;;4995807;28;19932;-78
2022/10/27 14:21:28;;;;;;;;;;;21.60;99.90;;;;;;4995690;28;19926;-78
2022/10/27 14:23:55;;;;;;;;;;;21.60;99.90;;;;;;4995586;28;19926;-78
2022/10/27 14:26:23;;;;;;;;;;;21.60;99.90;;;;;;4995182;28;20408;-78
2022/10/27 14:28:50;;;;;;;;;;;21.60;99.90;;;;;;4995203;28;20384;-78
2022/10/27 14:31:18;;;;;;;;;;;21.60;99.90;;;;;;4995435;28;19952;-78
2022/10/27 14:33:45;;;;;;;;;;;21.60;99.90;;;;;;4995419;28;19972;-78
2022/10/27 14:36:19;;;;;;;;;;;21.60;99.90;;;;;;4995029;28;20301;-78
2022/10/27 14:38:46;;;;;;;;;;;21.60;99.90;;;;;;4995406;28;20018;-78
2022/10/27 14:41:14;;;;;;;;;;;21.60;99.90;;;;;;4995279;28;19926;-78
2022/10/27 14:43:41;;;;;;;;;;;21.60;99.90;;;;;;4995192;28;19926;-78
2022/10/27 14:46:12;;;;;;;;;;;21.60;99.90;;;;;;4994794;28;19929;-78
2022/10/27 14:48:39;;;;;;;;;;;21.60;99.90;;;;;;4995218;28;19926;-78
2022/10/27 14:51:11;;;;;;;;;;;21.60;99.90;;;;;;4994815;28;19933;-78
2022/10/27 14:53:39;;;;;;;;;;;21.60;99.90;;;;;;4995106;28;19980;-78
2022/10/27 14:56:15;;;;;;;;;;;21.60;99.90;;;;;;4994730;28;19925;-78
2022/10/27 14:58:48;;;;;;;;;;;21.60;99.90;;;;;;4995006;28;19932;-78
2022/10/27 15:01:18;;;;;;;;;;;21.60;99.90;;;;;;4995000;28;19925;-78
2022/10/27 15:03:45;;;;;;;;;;;21.50;99.90;;;;;;4994887;28;19949;-78
2022/10/27 15:06:16;;;;;;;;;;;21.50;99.90;;;;;;4994828;28;20270;-78
2022/10/27 15:08:44;;;;;;;;;;;21.60;99.90;;;;;;4994640;28;19926;-78
2022/10/27 15:11:15;;;;;;;;;;;21.60;99.90;;;;;;4994866;28;20317;-78
2022/10/27 15:13:43;;;;;;;;;;;21.60;99.90;;;;;;4994818;28;19933;-78
2022/10/27 15:16:11;;;;;;;;;;;21.50;99.90;;;;;;4994554;28;19926;-78
2022/10/27 15:18:39;;;;;;;;;;;21.50;99.90;;;;;;4994462;28;20453;-78
2022/10/27 15:21:09;;;;;;;;;;;21.50;99.90;;;;;;4994713;28;19932;-78
2022/10/27 15:23:36;;;;;;;;;;;21.50;99.90;;;;;;4994348;28;19933;-78
2022/10/27 15:26:04;;;;;;;;;;;21.50;99.90;;;;;;4994628;28;19972;-78
2022/10/27 15:28:32;;;;;;;;;;;21.50;99.90;;;;;;4994659;28;19929;-78
2022/10/27 15:30:59;;;;;;;;;;;21.60;99.90;;;;;;4994338;28;20385;-78
2022/10/27 15:33:32;;;;;;;;;;;21.50;99.90;;;;;;4995771;28;19948;-78
2022/10/27 15:36:09;;;;;;;;;;;21.50;99.90;;;;;;4995502;28;19926;-78
2022/10/27 15:38:36;;;;;;;;;;;21.50;99.90;;;;;;4999527;28;19933;-79
2022/10/27 15:41:09;;;;;;;;;;;21.50;99.90;;;;;;4995556;28;19926;-78
2022/10/27 15:43:35;;;;;;;;;;;21.50;99.90;;;;;;4995093;28;19925;-78
2022/10/27 15:46:08;;;;;;;;;;;21.50;99.90;;;;;;4995021;28;19933;-78
2022/10/27 15:48:35;;;;;;;;;;;21.50;99.90;;;;;;4995430;28;19926;-78
2022/10/27 15:51:04;;;;;;;;;;;21.50;99.90;;;;;;4994975;28;20020;-77
2022/10/27 15:53:32;;;;;;;;;;;21.50;99.90;;;;;;4995498;28;19925;-77
2022/10/27 15:55:59;;;;;;;;;;;21.50;99.90;;;;;;4995226;28;19929;-77
2022/10/27 15:58:29;;;;;;;;;;;21.50;99.90;;;;;;4995782;28;19932;-77
2022/10/27 16:01:16;;;;;;;;;;;21.50;99.90;;;;;;4998895;28;19930;-77
2022/10/27 16:03:55;;;;;;;;;;;21.50;99.90;;;;;;4995333;28;19926;-77
2022/10/27 16:06:26;;;;;;;;;;;21.50;99.90;;;;;;4998808;28;19926;-77
2022/10/27 16:08:53;;;;;;;;;;;21.50;99.90;;;;;;4998384;28;20304;-77
2022/10/27 16:11:21;;;;;;;;;;;21.50;99.90;;;;;;4998226;28;20382;-77
2022/10/27 16:13:50;;;;;;;;;;;21.50;99.90;;;;;;4998341;28;19949;-77
2022/10/27 16:16:16;;;;;;;;;;;21.50;99.90;;;;;;4998352;28;19932;-77
2022/10/27 16:18:43;;;;;;;;;;;21.50;99.90;;;;;;4998874;28;19926;-78
2022/10/27 16:21:21;;;;;;;;;;;21.50;99.90;;;;;;4998736;28;19926;-76
2022/10/27 16:23:48;;;;;;;;;;;21.50;99.90;;;;;;4998407;28;19926;-75
2022/10/27 16:26:15;;;;;;;;;;;21.50;99.90;;;;;;4998483;28;19926;-75
2022/10/27 16:28:42;;;;;;;;;;;21.50;99.90;;;;;;4998322;28;20385;-77
2022/10/27 16:31:13;;;;;;;;;;;21.50;99.90;;;;;;4998598;28;20401;-75
2022/10/27 16:33:39;;;;;;;;;;;21.50;99.90;;;;;;4999132;28;19949;-75
2022/10/27 16:36:08;;;;;;;;;;;21.50;99.90;;;;;;4998218;28;19926;-75
2022/10/27 16:38:35;;;;;;;;;;;21.50;99.90;;;;;;4997675;28;20411;-75
2022/10/27 16:41:02;;;;;;;;;;;21.50;99.90;;;;;;4997555;28;19926;-74
2022/10/27 16:43:32;;;;;;;;;;;21.50;99.90;;;;;;4997406;28;19930;-75
2022/10/27 16:45:58;;;;;;;;;;;21.50;99.90;;;;;;4997359;28;19929;-76
2022/10/27 16:48:26;;;;;;;;;;;21.50;99.90;;;;;;4997386;28;19925;-75
2022/10/27 16:50:53;;;;;;;;;;;21.50;99.90;;;;;;4996998;28;19930;-75
2022/10/27 16:53:20;;;;;;;;;;;21.50;99.90;;;;;;4996983;28;20377;-75
2022/10/27 16:55:55;;;;;;;;;;;21.50;99.90;;;;;;4997285;28;19948;-75
2022/10/27 16:58:21;;;;;;;;;;;21.50;99.90;;;;;;4997204;28;19926;-75
2022/10/27 17:00:48;;;;;;;;;;;21.50;99.90;;;;;;4997170;28;19929;-75
2022/10/27 17:03:15;;;;;;;;;;;21.50;99.90;;;;;;4997007;28;19926;-75
2022/10/27 17:05:43;;;;;;;;;;;21.50;99.90;;;;;;4996744;28;20002;-75
2022/10/27 17:08:09;;;;;;;;;;;21.50;99.90;;;;;;4996906;28;19930;-76
2022/10/27 17:10:36;;;;;;;;;;;21.50;99.90;;;;;;4996730;28;19933;-76
2022/10/27 17:13:02;;;;;;;;;;;21.50;99.90;;;;;;4996907;28;19929;-75
2022/10/27 17:15:29;;;;;;;;;;;21.50;99.90;;;;;;4996895;28;19936;-75
2022/10/27 17:17:55;;;;;;;;;;;21.50;99.90;;;;;;4996698;28;19926;-75
2022/10/27 17:20:22;;;;;;;;;;;21.50;99.90;;;;;;4996794;28;19926;-75
2022/10/27 17:22:50;;;;;;;;;;;21.50;99.90;;;;;;4996757;28;19930;-75
2022/10/27 17:25:16;;;;;;;;;;;21.50;99.90;;;;;;4996654;28;19925;-75
2022/10/27 17:27:43;;;;;;;;;;;21.50;99.90;;;;;;4996253;28;20308;-75
2022/10/27 17:30:10;;;;;;;;;;;21.50;99.90;;;;;;4996234;28;20302;-75
2022/10/27 17:32:37;;;;;;;;;;;21.50;99.90;;;;;;4996557;28;19933;-75
2022/10/27 17:35:03;;;;;;;;;;;21.50;99.90;;;;;;4996528;28;19933;-75
2022/10/27 17:37:30;;;;;;;;;;;21.50;99.90;;;;;;4996353;28;19929;-75
2022/10/27 17:39:58;;;;;;;;;;;21.50;99.90;;;;;;4996449;28;19932;-76
2022/10/27 17:42:24;;;;;;;;;;;21.50;99.90;;;;;;4996380;28;19965;-75
2022/10/27 17:44:53;;;;;;;;;;;21.50;99.90;;;;;;4995935;28;21286;-77
2022/10/27 17:47:19;;;;;;;;;;;21.50;99.90;;;;;;4997948;28;19933;-77
2022/10/27 17:49:46;;;;;;;;;;;21.50;99.90;;;;;;4997237;28;19926;-77
2022/10/27 17:52:12;;;;;;;;;;;21.50;99.90;;;;;;4996627;28;19933;-77
2022/10/27 17:54:40;;;;;;;;;;;21.50;99.90;;;;;;4996366;28;19930;-78
2022/10/27 17:57:09;;;;;;;;;;;21.50;99.90;;;;;;4997379;28;19930;-77
2022/10/27 17:59:35;;;;;;;;;;;21.50;99.90;;;;;;4997239;28;19957;-78
2022/10/27 18:02:02;;;;;;;;;;;21.50;99.90;;;;;;5000327;28;19949;-78
2022/10/27 18:04:28;;;;;;;;;;;21.50;99.90;;;;;;5000848;28;19929;-78
2022/10/27 18:06:55;;;;;;;;;;;21.50;99.90;;;;;;5000287;28;19925;-79
2022/10/27 18:09:21;;;;;;;;;;;21.60;99.90;;;;;;5001060;28;19933;-79
2022/10/27 18:11:48;;;;;;;;;;;21.60;99.90;;;;;;5000376;28;19926;-79
2022/10/27 18:14:18;;;;;;;;;;;21.60;99.90;;;;;;5000808;28;19926;-78
2022/10/27 18:16:44;;;;;;;;;;;21.60;99.90;;;;;;5000089;28;19929;-79
2022/10/27 18:19:11;;;;;;;;;;;21.60;99.90;;;;;;4999526;28;20300;-79
2022/10/27 18:21:39;;;;;;;;;;;21.60;99.90;;;;;;4997615;28;19926;-78
2022/10/27 18:24:07;;;;;;;;;;;21.60;99.90;;;;;;4997316;28;19932;-82
2022/10/27 18:26:34;;;;;;;;;;;21.60;99.90;;;;;;4997039;28;19932;-81
2022/10/27 18:29:01;;;;;;;;;;;21.60;99.90;;;;;;4997011;28;19933;-81
2022/10/27 18:31:32;;;;;;;;;;;21.60;99.90;;;;;;4997555;28;19929;-81